Time;durP1;ratioP1;P1;durP2;ratioP2;P2;SDS_P1;SDS_P2;PMS_P1;PMS_P2;Temp;Humidity;BMP_temperature;BMP_pressure;BME280_temperature;BME280_humidity;BME280_pressure;Samples;Min_cycle;Max_cycle;Signal;HPM_P1;HPM_P2
2022/06/15 00:01:36;;;;;;;8.35;2.10;;;;;;;;;;4996470;28;20781;-67
2022/06/15 00:04:03;;;;;;;5.90;2.15;;;;;;;;;;4991740;28;20205;-66
2022/06/15 00:06:29;;;;;;;5.88;2.17;;;;;;;;;;4991918;28;20610;-66
2022/06/15 00:08:55;;;;;;;4.28;2.20;;;;;;;;;;4989272;28;20216;-66
2022/06/15 00:11:24;;;;;;;5.25;2.13;;;;;;;;;;4985985;28;20275;-66
2022/06/15 00:13:50;;;;;;;4.88;2.47;;;;;;;;;;4996607;28;20797;-66
2022/06/15 00:16:15;;;;;;;6.53;2.65;;;;;;;;;;4999727;28;20216;-66
2022/06/15 00:18:40;;;;;;;8.82;2.50;;;;;;;;;;4986469;28;20220;-66
2022/06/15 00:21:06;;;;;;;7.38;2.38;;;;;;;;;;4986874;28;20225;-66
2022/06/15 00:23:31;;;;;;;6.05;2.30;;;;;;;;;;5003058;28;20263;-66
2022/06/15 00:25:57;;;;;;;7.70;2.60;;;;;;;;;;4982734;28;20212;-67
2022/06/15 00:28:23;;;;;;;8.88;3.00;;;;;;;;;;4995373;28;20208;-66
2022/06/15 00:30:50;;;;;;;5.97;2.80;;;;;;;;;;4979499;28;20676;-66
2022/06/15 00:33:15;;;;;;;10.57;2.80;;;;;;;;;;4988303;28;20275;-66
2022/06/15 00:35:40;;;;;;;4.57;2.42;;;;;;;;;;4994327;28;20248;-66
2022/06/15 00:38:07;;;;;;;5.97;2.40;;;;;;;;;;4984491;28;20613;-66
2022/06/15 00:40:33;;;;;;;9.25;2.50;;;;;;;;;;4989667;28;20221;-66
2022/06/15 00:42:58;;;;;;;5.15;2.13;;;;;;;;;;4994198;28;20845;-66
2022/06/15 00:45:23;;;;;;;6.07;2.22;;;;;;;;;;4987103;28;20213;-66
2022/06/15 00:47:49;;;;;;;4.13;2.17;;;;;;;;;;4982128;28;20205;-67
2022/06/15 00:50:16;;;;;;;9.35;2.70;;;;;;;;;;4975781;28;21085;-66
2022/06/15 00:52:42;;;;;;;5.70;2.50;;;;;;;;;;4988072;28;20225;-66
2022/06/15 00:55:20;;;;;;;5.80;2.75;;;;;;;;;;5000576;28;20231;-66
2022/06/15 00:57:45;;;;;;;8.90;2.90;;;;;;;;;;5000597;28;20232;-66
2022/06/15 01:00:12;;;;;;;8.85;2.65;;;;;;;;;;4990438;28;20229;-66
2022/06/15 01:02:37;;;;;;;6.03;2.70;;;;;;;;;;4984658;28;20304;-66
2022/06/15 01:05:09;;;;;;;9.63;3.22;;;;;;;;;;4989908;28;20638;-66
2022/06/15 01:07:41;;;;;;;7.35;2.97;;;;;;;;;;4990667;28;20240;-66
2022/06/15 01:10:12;;;;;;;7.60;2.70;;;;;;;;;;5001068;28;20228;-66
2022/06/15 01:12:39;;;;;;;6.15;2.80;;;;;;;;;;4991324;28;20209;-66
2022/06/15 01:15:08;;;;;;;7.35;3.25;;;;;;;;;;5002173;28;20739;-66
2022/06/15 01:17:44;;;;;;;9.82;3.17;;;;;;;;;;5009091;28;20220;-66
2022/06/15 01:20:24;;;;;;;6.80;2.60;;;;;;;;;;4994741;28;20299;-66
2022/06/15 01:22:50;;;;;;;6.40;2.67;;;;;;;;;;5000433;28;20755;-65
2022/06/15 01:25:21;;;;;;;7.35;2.90;;;;;;;;;;4996697;28;20319;-66
2022/06/15 01:27:51;;;;;;;9.27;3.00;;;;;;;;;;5003238;28;20216;-66
2022/06/15 01:30:20;;;;;;;7.45;2.70;;;;;;;;;;5013678;28;20303;-66
2022/06/15 01:32:49;;;;;;;7.57;2.80;;;;;;;;;;4994369;28;20213;-66
2022/06/15 01:35:19;;;;;;;7.45;3.03;;;;;;;;;;4994938;28;20221;-66
2022/06/15 01:38:20;;;;;;;8.02;2.90;;;;;;;;;;5003199;28;20216;-65
2022/06/15 01:40:50;;;;;;;8.52;3.10;;;;;;;;;;4987229;28;21192;-65
2022/06/15 01:43:17;;;;;;;9.02;3.00;;;;;;;;;;4992754;28;20205;-65
2022/06/15 01:45:42;;;;;;;6.07;2.65;;;;;;;;;;5009128;28;20304;-66
2022/06/15 01:48:08;;;;;;;9.23;3.17;;;;;;;;;;4998933;28;20657;-65
2022/06/15 01:50:35;;;;;;;7.85;3.08;;;;;;;;;;5017720;28;20220;-65
2022/06/15 01:53:02;;;;;;;6.75;3.10;;;;;;;;;;5002022;28;20219;-65
2022/06/15 01:55:32;;;;;;;7.95;3.28;;;;;;;;;;5012195;28;20865;-67
2022/06/15 01:57:59;;;;;;;7.80;2.80;;;;;;;;;;5009826;28;20247;-65
2022/06/15 02:00:24;;;;;;;8.38;2.70;;;;;;;;;;4994989;28;20303;-66
2022/06/15 02:03:04;;;;;;;4.60;2.40;;;;;;;;;;4987625;28;20701;-66
2022/06/15 02:05:30;;;;;;;8.23;3.00;;;;;;;;;;4988070;28;20300;-65
2022/06/15 02:07:59;;;;;;;29.88;3.88;;;;;;;;;;4988468;28;20307;-65
2022/06/15 02:10:27;;;;;;;6.97;2.92;;;;;;;;;;4999450;28;20201;-66
2022/06/15 02:13:01;;;;;;;6.15;3.10;;;;;;;;;;4996192;28;20217;-65
2022/06/15 02:15:27;;;;;;;13.15;3.08;;;;;;;;;;4985876;28;20205;-65
2022/06/15 02:17:52;;;;;;;6.20;3.00;;;;;;;;;;4993909;28;20212;-65
2022/06/15 02:20:19;;;;;;;13.15;3.30;;;;;;;;;;4982182;28;20213;-65
2022/06/15 02:22:44;;;;;;;8.30;3.35;;;;;;;;;;5002499;28;20296;-65
2022/06/15 02:25:14;;;;;;;8.32;3.42;;;;;;;;;;5008691;28;20312;-65
2022/06/15 02:27:39;;;;;;;9.25;3.10;;;;;;;;;;5008164;28;20219;-65
2022/06/15 02:30:07;;;;;;;8.40;2.83;;;;;;;;;;5007787;28;20584;-65
2022/06/15 02:32:35;;;;;;;7.55;3.25;;;;;;;;;;5003399;28;20291;-65
2022/06/15 02:35:00;;;;;;;8.15;3.17;;;;;;;;;;4994270;28;20259;-65
2022/06/15 02:37:25;;;;;;;10.43;3.03;;;;;;;;;;5001146;28;20248;-65
2022/06/15 02:39:50;;;;;;;9.25;2.97;;;;;;;;;;4998919;28;20664;-64
2022/06/15 02:42:20;;;;;;;10.52;3.03;;;;;;;;;;4986690;28;20316;-65
2022/06/15 02:44:46;;;;;;;5.85;2.72;;;;;;;;;;4980928;28;20672;-65
2022/06/15 02:47:11;;;;;;;8.43;3.08;;;;;;;;;;4988836;28;20213;-65
2022/06/15 02:49:36;;;;;;;8.73;3.15;;;;;;;;;;5001270;28;20320;-65
2022/06/15 02:52:02;;;;;;;6.95;2.80;;;;;;;;;;5009091;28;20212;-65
2022/06/15 02:54:41;;;;;;;7.82;3.47;;;;;;;;;;4994360;28;20957;-65
2022/06/15 02:57:06;;;;;;;7.85;3.17;;;;;;;;;;5015177;28;20700;-66
2022/06/15 02:59:32;;;;;;;9.68;3.28;;;;;;;;;;4986500;28;20209;-64
2022/06/15 03:01:57;;;;;;;9.30;3.35;;;;;;;;;;4982936;28;20243;-65
2022/06/15 03:04:22;;;;;;;8.25;2.97;;;;;;;;;;4990830;28;20229;-63
2022/06/15 03:06:47;;;;;;;6.53;3.00;;;;;;;;;;4985864;28;20228;-64
2022/06/15 03:09:13;;;;;;;8.90;3.33;;;;;;;;;;4993579;28;20307;-63
2022/06/15 03:11:40;;;;;;;7.85;3.03;;;;;;;;;;4989256;28;20209;-64
2022/06/15 03:14:05;;;;;;;5.50;2.85;;;;;;;;;;4981216;28;20244;-64
2022/06/15 03:16:30;;;;;;;8.63;2.70;;;;;;;;;;5000265;28;20205;-64
2022/06/15 03:18:56;;;;;;;6.20;2.72;;;;;;;;;;5001327;28;20726;-64
2022/06/15 03:21:21;;;;;;;7.10;2.97;;;;;;;;;;5001040;28;20213;-64
2022/06/15 03:23:46;;;;;;;9.02;3.00;;;;;;;;;;5000038;28;20244;-64
2022/06/15 03:26:12;;;;;;;7.07;2.60;;;;;;;;;;4992323;28;20220;-65
2022/06/15 03:28:37;;;;;;;9.52;3.30;;;;;;;;;;4975135;28;20279;-65
2022/06/15 03:31:03;;;;;;;10.35;3.08;;;;;;;;;;4973994;28;20213;-65
2022/06/15 03:33:28;;;;;;;7.00;3.10;;;;;;;;;;4992162;28;20248;-65
2022/06/15 03:35:53;;;;;;;9.60;3.20;;;;;;;;;;4991274;28;20676;-65
2022/06/15 03:38:19;;;;;;;18.95;4.10;;;;;;;;;;4984762;28;20239;-66
2022/06/15 03:40:45;;;;;;;7.63;2.90;;;;;;;;;;4990399;28;20307;-66
2022/06/15 03:43:10;;;;;;;8.00;2.85;;;;;;;;;;4998680;28;20231;-66
2022/06/15 03:45:36;;;;;;;8.23;3.20;;;;;;;;;;4985871;28;20216;-66
2022/06/15 03:48:01;;;;;;;7.38;2.80;;;;;;;;;;4981948;28;20209;-66
2022/06/15 03:50:27;;;;;;;8.35;3.25;;;;;;;;;;4978300;28;20739;-67
2022/06/15 03:52:53;;;;;;;9.13;3.10;;;;;;;;;;5011282;28;20216;-67
2022/06/15 03:55:19;;;;;;;6.30;2.67;;;;;;;;;;5000899;28;20220;-63
2022/06/15 03:57:44;;;;;;;10.55;3.30;;;;;;;;;;5002697;28;20457;-62
2022/06/15 04:00:11;;;;;;;7.85;3.05;;;;;;;;;;4986748;28;20248;-62
2022/06/15 04:02:36;;;;;;;8.82;3.10;;;;;;;;;;4985711;28;20236;-60
2022/06/15 04:05:02;;;;;;;24.70;5.35;;;;;;;;;;4985833;28;20251;-61
2022/06/15 04:10:13;;;;;;;9.75;3.42;;;;;;;;;;4983371;28;20219;-60
2022/06/15 04:12:38;;;;;;;7.38;3.17;;;;;;;;;;4993240;28;20197;-61
2022/06/15 04:15:04;;;;;;;6.55;2.97;;;;;;;;;;4977235;28;20213;-60
2022/06/15 04:17:29;;;;;;;7.00;2.85;;;;;;;;;;4981199;28;20224;-61
2022/06/15 04:22:39;;;;;;;10.57;2.83;;;;;;;;;;4985476;28;20296;-60
2022/06/15 04:25:04;;;;;;;41.70;5.05;;;;;;;;;;4984444;28;20292;-60
2022/06/15 04:27:32;;;;;;;15.73;4.10;;;;;;;;;;4984889;28;20619;-60
2022/06/15 04:29:58;;;;;;;10.13;3.28;;;;;;;;;;4985787;28;20204;-61
2022/06/15 04:32:23;;;;;;;15.63;2.97;;;;;;;;;;4983543;28;20689;-61
2022/06/15 04:34:48;;;;;;;6.35;2.80;;;;;;;;;;4979078;28;20236;-61
2022/06/15 04:37:13;;;;;;;7.83;2.67;;;;;;;;;;4975806;28;20433;-62
2022/06/15 04:39:39;;;;;;;24.88;3.47;;;;;;;;;;4977821;28;20202;-62
2022/06/15 04:42:04;;;;;;;13.77;3.30;;;;;;;;;;4984647;28;20221;-61
2022/06/15 04:44:29;;;;;;;7.90;2.58;;;;;;;;;;4985386;28;20221;-61
2022/06/15 04:46:55;;;;;;;8.70;2.53;;;;;;;;;;4983846;28;20220;-60
2022/06/15 04:49:20;;;;;;;18.77;3.63;;;;;;;;;;4984311;28;20221;-60
2022/06/15 04:51:45;;;;;;;6.20;2.42;;;;;;;;;;4985188;28;20626;-61
2022/06/15 04:54:11;;;;;;;259.67;18.50;;;;;;;;;;4984272;28;20233;-60
2022/06/15 04:56:37;;;;;;;7.88;2.55;;;;;;;;;;4979081;28;20775;-61
2022/06/15 04:59:03;;;;;;;19.95;3.15;;;;;;;;;;4995936;28;20498;-61
2022/06/15 05:01:28;;;;;;;8.07;2.50;;;;;;;;;;4996135;28;20216;-61
2022/06/15 05:03:53;;;;;;;5.97;2.70;;;;;;;;;;5000927;28;20220;-61
2022/06/15 05:06:32;;;;;;;7.25;2.92;;;;;;;;;;5003537;28;20319;-61
2022/06/15 05:08:58;;;;;;;8.02;2.83;;;;;;;;;;5003919;28;20255;-61
2022/06/15 05:11:23;;;;;;;7.43;2.80;;;;;;;;;;4993120;28;20308;-61
2022/06/15 05:13:48;;;;;;;8.43;2.95;;;;;;;;;;4984368;28;20282;-61
2022/06/15 05:16:14;;;;;;;6.10;2.80;;;;;;;;;;5002083;28;20256;-61
2022/06/15 05:18:39;;;;;;;7.75;3.00;;;;;;;;;;5000284;28;20342;-61
2022/06/15 05:21:05;;;;;;;9.25;2.83;;;;;;;;;;5010611;28;20212;-60
2022/06/15 05:23:30;;;;;;;9.80;3.20;;;;;;;;;;4995590;28;20224;-61
2022/06/15 05:25:58;;;;;;;56.65;5.95;;;;;;;;;;4998872;28;20220;-61
2022/06/15 05:28:23;;;;;;;9.50;2.95;;;;;;;;;;5002973;28;20227;-61
2022/06/15 05:30:48;;;;;;;9.73;3.38;;;;;;;;;;4999283;28;20213;-61
2022/06/15 05:33:14;;;;;;;6.35;2.80;;;;;;;;;;4983572;28;20653;-62
2022/06/15 05:35:39;;;;;;;7.68;3.03;;;;;;;;;;4983496;28;20556;-66
2022/06/15 05:38:05;;;;;;;7.03;3.28;;;;;;;;;;4981575;28;20434;-64
2022/06/15 05:40:30;;;;;;;8.52;3.03;;;;;;;;;;4984268;28;20891;-63
2022/06/15 05:42:55;;;;;;;6.22;2.80;;;;;;;;;;4977717;28;20231;-64
2022/06/15 05:45:20;;;;;;;11.98;3.70;;;;;;;;;;4975027;28;20221;-66
2022/06/15 05:47:46;;;;;;;7.90;3.13;;;;;;;;;;4977024;28;20292;-65
2022/06/15 05:50:12;;;;;;;14.95;4.05;;;;;;;;;;4983568;28;20580;-65
2022/06/15 05:52:37;;;;;;;6.43;3.10;;;;;;;;;;4982575;28;20209;-65
2022/06/15 05:55:03;;;;;;;10.15;3.20;;;;;;;;;;4989156;28;20636;-61
2022/06/15 05:57:28;;;;;;;7.57;3.00;;;;;;;;;;5002293;28;20764;-61
2022/06/15 05:59:55;;;;;;;6.43;3.22;;;;;;;;;;5001130;28;20236;-62
2022/06/15 06:02:21;;;;;;;6.78;3.03;;;;;;;;;;5017291;28;20251;-61
2022/06/15 06:04:46;;;;;;;8.90;3.45;;;;;;;;;;4997064;28;20841;-62
2022/06/15 06:07:11;;;;;;;8.73;3.45;;;;;;;;;;4993600;28;20227;-61
2022/06/15 06:09:37;;;;;;;7.47;3.63;;;;;;;;;;4995081;28;20215;-61
2022/06/15 06:12:02;;;;;;;8.05;3.22;;;;;;;;;;4984679;28;20994;-61
2022/06/15 06:14:28;;;;;;;8.55;3.28;;;;;;;;;;4984845;28;20237;-61
2022/06/15 06:16:53;;;;;;;10.45;3.72;;;;;;;;;;5002667;28;20223;-61
2022/06/15 06:19:18;;;;;;;50.25;5.38;;;;;;;;;;5002210;28;20285;-62
2022/06/15 06:21:43;;;;;;;8.65;3.60;;;;;;;;;;5001585;28;20715;-62
2022/06/15 06:24:09;;;;;;;7.57;3.05;;;;;;;;;;5002071;28;20224;-62
2022/06/15 06:26:35;;;;;;;11.85;3.45;;;;;;;;;;4998162;28;20215;-62
2022/06/15 06:29:00;;;;;;;15.15;3.85;;;;;;;;;;4995388;28;20217;-62
2022/06/15 06:31:26;;;;;;;7.50;3.83;;;;;;;;;;4986091;28;20688;-62
2022/06/15 06:33:51;;;;;;;7.30;3.00;;;;;;;;;;4977268;28;20634;-61
2022/06/15 06:36:19;;;;;;;12.20;3.33;;;;;;;;;;4982593;28;20702;-61
2022/06/15 06:38:44;;;;;;;9.88;3.33;;;;;;;;;;4998213;28;20209;-62
2022/06/15 06:41:09;;;;;;;7.28;3.13;;;;;;;;;;4981659;28;20271;-62
2022/06/15 06:43:35;;;;;;;9.65;3.00;;;;;;;;;;4997753;28;20484;-64
2022/06/15 06:46:00;;;;;;;6.82;3.17;;;;;;;;;;4977847;28;20225;-62
2022/06/15 06:48:26;;;;;;;9.13;3.92;;;;;;;;;;4962019;28;20687;-60
2022/06/15 06:50:51;;;;;;;10.05;3.60;;;;;;;;;;4975799;28;20637;-62
2022/06/15 06:53:17;;;;;;;9.02;3.75;;;;;;;;;;4989232;28;20217;-61
2022/06/15 06:55:42;;;;;;;8.77;3.30;;;;;;;;;;4974811;28;20551;-61
2022/06/15 06:58:07;;;;;;;7.13;3.67;;;;;;;;;;4981689;28;20209;-61
2022/06/15 07:00:33;;;;;;;6.45;3.17;;;;;;;;;;4983818;28;20229;-61
2022/06/15 07:02:59;;;;;;;7.97;3.25;;;;;;;;;;4996601;28;20428;-61
2022/06/15 07:05:24;;;;;;;9.90;3.25;;;;;;;;;;5009484;28;20232;-61
2022/06/15 07:07:49;;;;;;;9.05;3.35;;;;;;;;;;5011511;28;20887;-61
2022/06/15 07:10:15;;;;;;;6.28;3.00;;;;;;;;;;5007402;28;20204;-61
2022/06/15 07:12:42;;;;;;;7.57;3.22;;;;;;;;;;5010924;28;20205;-62
2022/06/15 07:15:07;;;;;;;8.82;3.70;;;;;;;;;;5011202;28;20311;-62
2022/06/15 07:17:33;;;;;;;11.90;3.10;;;;;;;;;;5010596;28;20596;-62
2022/06/15 07:19:58;;;;;;;9.50;3.13;;;;;;;;;;5010992;28;20220;-61
2022/06/15 07:22:23;;;;;;;10.57;3.25;;;;;;;;;;5010671;28;20223;-62
2022/06/15 07:24:49;;;;;;;8.52;2.58;;;;;;;;;;5010824;28;20216;-62
2022/06/15 07:27:15;;;;;;;10.43;2.90;;;;;;;;;;5011022;28;20626;-62
2022/06/15 07:29:40;;;;;;;10.32;3.25;;;;;;;;;;5010814;28;20208;-61
2022/06/15 07:32:06;;;;;;;8.27;2.83;;;;;;;;;;5010356;28;20213;-62
2022/06/15 07:34:31;;;;;;;9.90;2.72;;;;;;;;;;5010765;28;20295;-62
2022/06/15 07:36:56;;;;;;;9.55;2.65;;;;;;;;;;5009178;28;20218;-62
2022/06/15 07:39:22;;;;;;;6.90;2.65;;;;;;;;;;5010844;28;20315;-63
2022/06/15 07:41:48;;;;;;;8.68;2.67;;;;;;;;;;5011524;28;20212;-64
2022/06/15 07:44:13;;;;;;;9.20;2.47;;;;;;;;;;5000252;28;20569;-62
2022/06/15 07:46:39;;;;;;;6.93;2.28;;;;;;;;;;4991367;28;20244;-62
2022/06/15 07:51:52;;;;;;;9.43;2.72;;;;;;;;;;4990415;28;20344;-61
2022/06/15 07:54:18;;;;;;;11.38;2.90;;;;;;;;;;4991270;28;20304;-62
2022/06/15 07:56:43;;;;;;;9.98;2.47;;;;;;;;;;4991781;28;20683;-62
2022/06/15 07:59:08;;;;;;;6.88;2.45;;;;;;;;;;4990219;28;20205;-61
2022/06/15 08:01:34;;;;;;;11.13;2.53;;;;;;;;;;4991018;28;20633;-62
2022/06/15 08:03:59;;;;;;;9.27;2.50;;;;;;;;;;5006549;28;20244;-62
2022/06/15 08:06:24;;;;;;;14.98;3.08;;;;;;;;;;5011212;28;20273;-62
2022/06/15 08:08:51;;;;;;;9.52;2.85;;;;;;;;;;5008567;28;20286;-61
2022/06/15 08:11:16;;;;;;;8.77;2.30;;;;;;;;;;5001514;28;20624;-64
2022/06/15 08:13:42;;;;;;;7.25;2.47;;;;;;;;;;5005362;28;20631;-63
2022/06/15 08:16:07;;;;;;;7.60;2.47;;;;;;;;;;5010867;28;20216;-63
2022/06/15 08:18:33;;;;;;;10.18;2.47;;;;;;;;;;5010500;28;20205;-63
2022/06/15 08:21:03;;;;;;;8.43;2.33;;;;;;;;;;5010790;28;20299;-62
2022/06/15 08:23:29;;;;;;;6.28;2.00;;;;;;;;;;5012847;28;20216;-61
2022/06/15 08:25:56;;;;;;;7.57;2.30;;;;;;;;;;5014652;28;20220;-62
2022/06/15 08:28:22;;;;;;;8.00;2.13;;;;;;;;;;5012582;28;20228;-62
2022/06/15 08:30:47;;;;;;;7.40;2.00;;;;;;;;;;5012650;28;20208;-62
2022/06/15 08:33:13;;;;;;;7.90;2.10;;;;;;;;;;5011234;28;20583;-61
2022/06/15 08:35:38;;;;;;;9.82;2.15;;;;;;;;;;5014228;28;20612;-61
2022/06/15 08:38:04;;;;;;;7.28;2.00;;;;;;;;;;5014380;28;20239;-61
2022/06/15 08:40:31;;;;;;;5.65;2.20;;;;;;;;;;5013599;28;20215;-61
2022/06/15 08:42:57;;;;;;;6.90;2.10;;;;;;;;;;5013094;28;20307;-63
2022/06/15 08:45:26;;;;;;;7.68;2.38;;;;;;;;;;5004720;28;20231;-61
2022/06/15 08:48:10;;;;;;;7.80;2.20;;;;;;;;;;5011638;28;20262;-62
2022/06/15 08:50:37;;;;;;;8.55;2.30;;;;;;;;;;5013797;28;20205;-61
2022/06/15 08:53:11;;;;;;;9.25;2.38;;;;;;;;;;5013306;28;20235;-61
2022/06/15 08:55:40;;;;;;;5.47;2.20;;;;;;;;;;5012023;28;20702;-61
2022/06/15 08:58:10;;;;;;;8.55;1.90;;;;;;;;;;5012237;28;20223;-61
2022/06/15 09:00:37;;;;;;;5.88;1.83;;;;;;;;;;5012274;28;20746;-61
2022/06/15 09:03:09;;;;;;;5.97;2.00;;;;;;;;;;5009500;28;20213;-61
2022/06/15 09:05:39;;;;;;;5.35;1.90;;;;;;;;;;4994207;28;20217;-61
2022/06/15 09:08:16;;;;;;;7.65;1.80;;;;;;;;;;5008783;28;20209;-61
2022/06/15 09:10:55;;;;;;;8.38;2.08;;;;;;;;;;4993678;28;20220;-62
2022/06/15 09:13:22;;;;;;;9.57;2.20;;;;;;;;;;5020634;28;20231;-64
2022/06/15 09:15:57;;;;;;;6.40;2.20;;;;;;;;;;4993564;28;20563;-61
2022/06/15 09:18:25;;;;;;;6.40;2.00;;;;;;;;;;4992402;28;20271;-62
2022/06/15 09:21:00;;;;;;;8.00;1.90;;;;;;;;;;4993780;28;20202;-62
2022/06/15 09:23:28;;;;;;;19.00;2.67;;;;;;;;;;4999797;28;20209;-62
2022/06/15 09:25:55;;;;;;;8.82;2.25;;;;;;;;;;4992778;28;20217;-63
2022/06/15 09:28:25;;;;;;;6.93;2.15;;;;;;;;;;4993801;28;20217;-62
2022/06/15 09:30:51;;;;;;;7.18;2.13;;;;;;;;;;4991690;28;20212;-61
2022/06/15 09:33:18;;;;;;;8.30;1.90;;;;;;;;;;5010399;28;20225;-61
2022/06/15 09:35:50;;;;;;;8.90;2.50;;;;;;;;;;5011103;28;20480;-60
2022/06/15 09:38:16;;;;;;;9.15;2.10;;;;;;;;;;5010607;28;20232;-61
2022/06/15 09:40:44;;;;;;;18.73;2.80;;;;;;;;;;5011424;28;20453;-62
2022/06/15 09:43:12;;;;;;;6.90;2.00;;;;;;;;;;5010253;28;20460;-62
2022/06/15 09:45:41;;;;;;;9.25;2.03;;;;;;;;;;4991512;28;20237;-61
2022/06/15 09:48:25;;;;;;;6.93;1.95;;;;;;;;;;4992740;28;20217;-63
2022/06/15 09:50:54;;;;;;;6.45;1.80;;;;;;;;;;4992075;28;20268;-63
2022/06/15 09:53:38;;;;;;;5.78;1.73;;;;;;;;;;4991737;28;20312;-63
2022/06/15 09:56:06;;;;;;;7.55;2.38;;;;;;;;;;4991850;28;20228;-62
2022/06/15 09:58:33;;;;;;;7.15;2.05;;;;;;;;;;4991192;28;20217;-62
2022/06/15 10:00:58;;;;;;;6.50;2.33;;;;;;;;;;4992742;28;20229;-61
2022/06/15 10:03:26;;;;;;;5.28;2.25;;;;;;;;;;4992446;28;20621;-61
2022/06/15 10:05:53;;;;;;;7.72;1.80;;;;;;;;;;4991472;28;20217;-61
2022/06/15 10:08:18;;;;;;;7.85;2.10;;;;;;;;;;4991696;28;20564;-62
2022/06/15 10:10:45;;;;;;;7.93;1.92;;;;;;;;;;4992992;28;20216;-62
2022/06/15 10:13:17;;;;;;;10.43;2.10;;;;;;;;;;4998358;28;20292;-61
2022/06/15 10:15:42;;;;;;;17.83;2.85;;;;;;;;;;4993252;28;20299;-61
2022/06/15 10:18:14;;;;;;;4.88;2.10;;;;;;;;;;4992234;28;20292;-61
2022/06/15 10:20:41;;;;;;;9.07;2.00;;;;;;;;;;4992446;28;20208;-61
2022/06/15 10:23:10;;;;;;;6.25;2.10;;;;;;;;;;4991377;28;20210;-61
2022/06/15 10:25:36;;;;;;;7.03;2.03;;;;;;;;;;4990580;28;20212;-61
2022/06/15 10:28:12;;;;;;;7.57;2.05;;;;;;;;;;4992510;28;20256;-61
2022/06/15 10:30:37;;;;;;;8.20;1.92;;;;;;;;;;4991219;28;20205;-61
2022/06/15 10:33:12;;;;;;;7.68;1.85;;;;;;;;;;5006415;28;20262;-61
2022/06/15 10:35:38;;;;;;;7.57;2.17;;;;;;;;;;5012268;28;20242;-62
2022/06/15 10:38:09;;;;;;;6.95;1.92;;;;;;;;;;5010534;28;20588;-62
2022/06/15 10:40:35;;;;;;;6.95;2.30;;;;;;;;;;5010096;28;20220;-61
2022/06/15 10:43:00;;;;;;;82.50;7.07;;;;;;;;;;5010244;28;20636;-62
2022/06/15 10:45:30;;;;;;;7.20;2.58;;;;;;;;;;4992703;28;20299;-61
2022/06/15 10:47:56;;;;;;;8.38;2.42;;;;;;;;;;4991545;28;20224;-61
2022/06/15 10:50:26;;;;;;;7.40;1.92;;;;;;;;;;4991822;28;20205;-62
2022/06/15 10:52:53;;;;;;;6.10;2.10;;;;;;;;;;4991095;28;20239;-61
2022/06/15 11:04:06;;;;;;;5.43;2.08;;;;;;;;;;4991434;28;20220;-75
2022/06/15 11:06:36;;;;;;;7.97;2.15;;;;;;;;;;5008410;28;20223;-75
2022/06/15 11:09:01;;;;;;;6.07;1.90;;;;;;;;;;5009847;28;20209;-72
2022/06/15 11:11:26;;;;;;;4.47;1.70;;;;;;;;;;5010738;28;20219;-76
2022/06/15 11:13:56;;;;;;;7.57;2.00;;;;;;;;;;5010928;28;20217;-74
2022/06/15 11:19:11;;;;;;;5.82;1.83;;;;;;;;;;5010659;28;20580;-60
2022/06/15 11:21:42;;;;;;;4.80;1.60;;;;;;;;;;5011852;28;20216;-59
2022/06/15 11:24:07;;;;;;;7.28;2.00;;;;;;;;;;5025454;28;20223;-60
2022/06/15 11:29:30;;;;;;;5.88;1.95;;;;;;;;;;5010576;28;20227;-60
2022/06/15 11:31:55;;;;;;;10.57;1.80;;;;;;;;;;5011748;28;20215;-60
2022/06/15 11:34:21;;;;;;;5.88;1.85;;;;;;;;;;5009227;28;20552;-61
2022/06/15 11:37:04;;;;;;;24.52;3.45;;;;;;;;;;5009381;28;20691;-60
2022/06/15 11:39:31;;;;;;;16.23;2.20;;;;;;;;;;5009794;28;20256;-60
2022/06/15 11:41:56;;;;;;;9.18;2.17;;;;;;;;;;5010544;28;20376;-60
2022/06/15 11:44:22;;;;;;;7.22;1.65;;;;;;;;;;5010367;28;20242;-61
2022/06/15 11:46:54;;;;;;;4.72;1.60;;;;;;;;;;5011605;28;20216;-59
2022/06/15 11:49:24;;;;;;;6.70;1.60;;;;;;;;;;5010540;28;20217;-59
2022/06/15 11:52:00;;;;;;;7.53;2.03;;;;;;;;;;5009312;28;20212;-60
2022/06/15 11:54:30;;;;;;;5.00;1.60;;;;;;;;;;5009827;28;20212;-60
2022/06/15 11:56:56;;;;;;;82.82;7.45;;;;;;;;;;5012738;28;20216;-60
2022/06/15 11:59:34;;;;;;;6.40;1.77;;;;;;;;;;5014630;28;20212;-61
2022/06/15 12:02:07;;;;;;;48.20;4.38;;;;;;;;;;5014929;28;20227;-60
2022/06/15 12:04:37;;;;;;;21.77;2.92;;;;;;;;;;5013652;28;20219;-60
2022/06/15 12:07:05;;;;;;;10.02;2.00;;;;;;;;;;5013422;28;20346;-61
2022/06/15 12:09:30;;;;;;;6.35;2.28;;;;;;;;;;5014847;28;20265;-60
2022/06/15 12:14:43;;;;;;;7.82;1.92;;;;;;;;;;5009031;28;20240;-60
2022/06/15 12:17:11;;;;;;;5.65;1.80;;;;;;;;;;4994415;28;20689;-60
2022/06/15 12:19:42;;;;;;;7.10;1.92;;;;;;;;;;4994521;28;20679;-60
2022/06/15 12:22:10;;;;;;;5.85;1.63;;;;;;;;;;4993686;28;20586;-60
2022/06/15 12:24:40;;;;;;;6.05;1.60;;;;;;;;;;4993829;28;20216;-60
2022/06/15 12:27:11;;;;;;;6.35;1.70;;;;;;;;;;4994036;28;20221;-61
2022/06/15 12:29:40;;;;;;;6.38;1.60;;;;;;;;;;4993915;28;20359;-60
2022/06/15 12:32:36;;;;;;;4.05;1.42;;;;;;;;;;5001703;28;20220;-60
2022/06/15 12:35:01;;;;;;;4.47;1.65;;;;;;;;;;5013008;28;20366;-60
2022/06/15 12:37:36;;;;;;;7.45;1.70;;;;;;;;;;5014454;28;20967;-60
2022/06/15 12:40:10;;;;;;;7.13;1.90;;;;;;;;;;5006219;28;20220;-61
2022/06/15 12:42:35;;;;;;;9.68;1.92;;;;;;;;;;5007736;28;20292;-61
2022/06/15 12:45:01;;;;;;;10.05;1.90;;;;;;;;;;5001915;28;20736;-60
2022/06/15 12:47:27;;;;;;;29.00;3.70;;;;;;;;;;4972428;28;20213;-60
2022/06/15 12:50:04;;;;;;;24.52;2.47;;;;;;;;;;4975082;28;20277;-59
2022/06/15 12:52:39;;;;;;;5.85;1.52;;;;;;;;;;4974734;28;20688;-59
2022/06/15 12:55:13;;;;;;;6.38;1.52;;;;;;;;;;4973784;28;20253;-59
2022/06/15 12:57:42;;;;;;;5.00;1.55;;;;;;;;;;5006681;28;20684;-59
2022/06/15 13:00:22;;;;;;;4.80;1.67;;;;;;;;;;4974588;28;20249;-60
2022/06/15 13:02:54;;;;;;;5.20;1.50;;;;;;;;;;4992856;28;20217;-59
2022/06/15 13:05:26;;;;;;;5.50;1.52;;;;;;;;;;4992497;28;20221;-60
2022/06/15 13:08:11;;;;;;;5.18;1.30;;;;;;;;;;4990509;28;20213;-59
2022/06/15 13:10:36;;;;;;;5.65;1.80;;;;;;;;;;5000456;28;20454;-60
2022/06/15 13:13:03;;;;;;;6.60;1.58;;;;;;;;;;5001738;28;20322;-59
2022/06/15 13:15:31;;;;;;;5.32;1.60;;;;;;;;;;5012950;28;20354;-59
2022/06/15 13:18:09;;;;;;;14.13;2.17;;;;;;;;;;5013731;28;20271;-60
2022/06/15 13:20:46;;;;;;;4.25;1.50;;;;;;;;;;5000776;28;20215;-60
2022/06/15 13:23:15;;;;;;;5.22;1.73;;;;;;;;;;4992813;28;20634;-59
2022/06/15 13:25:48;;;;;;;6.18;1.60;;;;;;;;;;4993772;28;20217;-59
2022/06/15 13:28:15;;;;;;;4.60;1.50;;;;;;;;;;4992286;28;20217;-59
2022/06/15 13:30:47;;;;;;;26.70;3.08;;;;;;;;;;4993438;28;20212;-59
2022/06/15 13:33:12;;;;;;;4.90;1.30;;;;;;;;;;5011224;28;20224;-60
2022/06/15 13:35:40;;;;;;;7.05;1.70;;;;;;;;;;5012409;28;20200;-59
2022/06/15 13:38:22;;;;;;;4.90;1.40;;;;;;;;;;5012982;28;20304;-60
2022/06/15 13:40:53;;;;;;;5.95;1.50;;;;;;;;;;5013285;28;20275;-59
2022/06/15 13:43:19;;;;;;;4.82;1.60;;;;;;;;;;5009864;28;20606;-59
2022/06/15 13:45:44;;;;;;;5.13;1.55;;;;;;;;;;4993772;28;20695;-59
2022/06/15 13:48:12;;;;;;;4.25;1.40;;;;;;;;;;4992961;28;20213;-59
2022/06/15 13:50:40;;;;;;;4.43;1.50;;;;;;;;;;4991319;28;20283;-59
2022/06/15 13:53:09;;;;;;;5.43;1.63;;;;;;;;;;4992935;28;20221;-61
2022/06/15 13:55:37;;;;;;;4.95;1.50;;;;;;;;;;4992045;28;20696;-59
2022/06/15 13:58:03;;;;;;;3.10;1.40;;;;;;;;;;4992432;28;20619;-59
2022/06/15 14:00:38;;;;;;;4.22;1.38;;;;;;;;;;4993334;28;20300;-59
2022/06/15 14:03:09;;;;;;;6.40;1.65;;;;;;;;;;4991200;28;20213;-60
2022/06/15 14:05:35;;;;;;;5.55;1.63;;;;;;;;;;4991796;28;20811;-59
2022/06/15 14:08:10;;;;;;;5.40;1.73;;;;;;;;;;4992056;28;20225;-61
2022/06/15 14:10:43;;;;;;;4.72;1.30;;;;;;;;;;4991534;28;20208;-60
2022/06/15 14:13:16;;;;;;;6.93;1.77;;;;;;;;;;4999535;28;20200;-60
2022/06/15 14:16:01;;;;;;;6.43;1.50;;;;;;;;;;4993005;28;20227;-60
2022/06/15 14:18:26;;;;;;;3.53;1.63;;;;;;;;;;5007683;28;20612;-60
2022/06/15 14:20:51;;;;;;;7.95;1.67;;;;;;;;;;4993170;28;20244;-60
2022/06/15 14:23:27;;;;;;;6.53;1.55;;;;;;;;;;4992782;28;20219;-60
2022/06/15 14:25:53;;;;;;;5.25;1.52;;;;;;;;;;4991926;28;20271;-59
2022/06/15 14:28:23;;;;;;;6.75;1.80;;;;;;;;;;4992389;28;20205;-60
2022/06/15 14:30:56;;;;;;;5.63;1.50;;;;;;;;;;4998008;28;20228;-60
2022/06/15 14:33:24;;;;;;;7.50;1.80;;;;;;;;;;5010974;28;20215;-59
2022/06/15 14:35:57;;;;;;;6.25;1.50;;;;;;;;;;5012358;28;20622;-59
2022/06/15 14:38:23;;;;;;;6.80;1.70;;;;;;;;;;5011630;28;20224;-60
2022/06/15 14:40:50;;;;;;;4.45;1.30;;;;;;;;;;5011285;28;20687;-60
2022/06/15 14:43:17;;;;;;;5.28;1.92;;;;;;;;;;5009429;28;20239;-59
2022/06/15 14:45:43;;;;;;;5.28;1.60;;;;;;;;;;4992606;28;20205;-60
2022/06/15 14:48:11;;;;;;;3.47;1.65;;;;;;;;;;4991406;28;20688;-60
2022/06/15 14:50:37;;;;;;;5.13;1.65;;;;;;;;;;4992618;28;20209;-59
2022/06/15 14:53:09;;;;;;;7.05;1.52;;;;;;;;;;4991150;28;20303;-60
2022/06/15 14:55:35;;;;;;;5.20;1.65;;;;;;;;;;4992093;28;20700;-59
2022/06/15 14:58:11;;;;;;;6.07;1.58;;;;;;;;;;4992364;28;20223;-60
2022/06/15 15:00:36;;;;;;;9.20;1.50;;;;;;;;;;4998020;28;20221;-60
2022/06/15 15:03:02;;;;;;;4.95;1.50;;;;;;;;;;4991396;28;20926;-60
2022/06/15 15:05:29;;;;;;;4.30;1.65;;;;;;;;;;4992793;28;20224;-59
2022/06/15 15:08:14;;;;;;;5.40;1.58;;;;;;;;;;4997476;28;20215;-59
2022/06/15 15:10:40;;;;;;;5.70;1.88;;;;;;;;;;5004645;28;20204;-60